Disclaimer

Please do not use the information listed here in-flight or in-navigation, as they are not provided to us by the airports but are provided by volunteers, so they might be outdated.

Search


Regions


Airport information page

Radio informations:
RDO - 118.1 MHz
EDMONTON RDO - 122.5 MHz
EDMONTON CNTR - 135.7 MHz
Automatic Terminal Information Service (ATIS) - 128.5 MHz

Airport informations:
Latitude: 56° 39' 12.00" N
Longitude: 111° 13' 19.00" W
Elevation: 1211 feet - 369 meters
Operating hours: N/A
Operating agency: Municipal
Timezone: Second Sunday in March at 0200 to first Sunday in November at 0200 local time (Exception Arizona and that portion of Indiana in the Eastern Time Zone)
Fuel: Jet B, Wide cut turbine fuel, Without icing inhibitor.

100/130 octane gasoline, leaded, MIL-L-5572F (GREEN)

80/87 octane gasoline, leaded, MIL-L-5572F (RED)

Runway information:
07/25 - 6000 x 150 feet< - >1829 x 46 meters

Recent METARs:
CYMM 190200Z AUTO 12007KT 9SM BKN240 M17/M20 A3018 RMK SLP259
CYMM 190200Z AUTO 12007KT 9SM BKN240 M17/M20 A3018 RMK SLP259
CYMM 190300Z AUTO 11008KT 9SM CLR M17/M19 A3018 RMK SLP257

Airport on the map: